This is the latest recevied weather packets stored in our database for station/object AD4CG. If no packets are shown the sender has not sent any weather packets the latest 10 day(s).
| Time | Temp. | Humidity | Pressure | Rain* | Wind** | Luminosity | Snow |
|---|---|---|---|---|---|---|---|
| 1777017497 | 17.22° C | 71% | 1012.9 hPa | 0 mm | - | - | - |
| 1777014336 | 18.89° C | 63% | 1012.9 hPa | 0 mm | - | - | - |
| 1777013081 | 18.89° C | 61% | 1012.9 hPa | 0 mm | - | - | - |
| 1777012769 | 19.44° C | 61% | 1012.9 hPa | 0 mm | - | - | - |
| 1777012456 | 19.44° C | 61% | 1012.9 hPa | 0 mm | - | - | - |
| 1777012145 | 19.44° C | 62% | 1012.9 hPa | 0 mm | - | - | - |
| 1777009322 | 20° C | 58% | 1013.2 hPa | 0 mm | - | - | - |
| 1777007732 | 19.44° C | 60% | 1013.2 hPa | 0 mm | - | - | - |
| 1777005227 | 17.22° C | 69% | 1013.9 hPa | 0 mm | - | - | - |
| 1777002092 | 16.67° C | 73% | 1013.5 hPa | 0 mm | - | - | - |
| 1776995782 | 18.33° C | 66% | 1013.9 hPa | 0 mm | - | - | - |
| 1776995465 | 18.33° C | 64% | 1013.9 hPa | 0 mm | - | - | - |
| 1776992930 | 20.56° C | 51% | 1013.5 hPa | 0 mm | - | - | - |
| 1776991974 | 21.67° C | 42% | 1013.5 hPa | 0 mm | - | - | - |
| 1776989135 | 25° C | 27% | 1013.2 hPa | 0 mm | - | - | - |
| 1776986635 | 27.78° C | 18% | 1012.9 hPa | 0 mm | - | - | - |
| 1776985678 | 28.33° C | 17% | 1012.9 hPa | 0 mm | - | - | - |
| 1776973465 | 29.44° C | 16% | 1014.2 hPa | 0 mm | - | - | - |
| 1776971592 | 28.89° C | 15% | 1014.9 hPa | 0 mm | - | - | - |
| 1776967849 | 28.33° C | 15% | 1015.9 hPa | 0 mm | - | - | - |
| 1776967542 | 28.89° C | 13% | 1015.9 hPa | 0 mm | - | - | - |
| 1776965661 | 28.33° C | 12% | 1016.3 hPa | 0 mm | - | - | - |
| 1776964723 | 28.33° C | 19% | 1016.3 hPa | 0 mm | - | - | - |
| 1776964407 | 28.33° C | 20% | 1016.3 hPa | 0 mm | - | - | - |
| 1776963158 | 27.78° C | 22% | 1016.6 hPa | 0 mm | - | - | - |
* Rain latest hour (hover to see other rain measurements)
** Current wind speed in m/s (hover to see current wind gust speed)